Flight Track Log - Related Links

Times and Time Zones

All times are in EST time to prevent confusion due to time zone crossing. See the SWA2596 flight status page for this flight to view local times or setup timezone preferences in your user account.

Time Position Orientation Groundspeed Altitude Reporting Facility
EST Latitude Longitude Course Direction KTS MPH feet Rate Location/Type
Fri 11:36:41 AM 36.0761 -115.1683 270° West 157 181 3,500  Level Los Angeles Center
Fri 11:37:11 AM 36.0761 -115.1975 270° West 178 205 4,200 2,110 Climbing Los Angeles Center
Fri 11:38:12 AM 36.0556 -115.2628 249° West 241 277 6,700 2,492 Climbing Los Angeles Center
Fri 11:38:16 AM 36.0492 -115.2639 188° South 245 282 6,900 3,273 Climbing Los Angeles Center
Fri 11:39:18 AM 35.9692 -115.3058 203° Southwest 294 338 10,300 3,238 Climbing Los Angeles Center
Fri 11:39:19 AM 35.9681 -115.3072 225° Southwest 298 343 10,300 677 Level Los Angeles Center
Fri 11:40:20 AM 35.9078 -115.3792 224° Southwest 311 358 11,000 341 Climbing Los Angeles Center
Fri 11:41:22 AM 35.8878 -115.4903 258° West 318 366 11,000  Level Los Angeles Center
Fri 11:42:25 AM 35.8900 -115.6008 271° West 322 371 11,000 240 Level Los Angeles Center
Fri 11:43:27 AM 35.8906 -115.7128 270° West 335 386 11,500 2,468 Climbing Los Angeles Center
Fri 11:44:29 AM 35.8939 -115.8431 272° West 343 395 16,100 4,065 Climbing Los Angeles Center
Fri 11:45:31 AM 35.9475 -115.9486 302° West 346 398 19,900 3,435 Climbing Los Angeles Center
Fri 11:46:33 AM 36.0183 -116.0378 314° West 363 418 23,200 2,903 Climbing Los Angeles Center
Fri 11:47:35 AM 36.0828 -116.1225 313° West 368 423 25,900 3,000 Climbing Los Angeles Center
Fri 11:48:37 AM 36.1681 -116.2319 314° West 381 438 29,400 2,952 Climbing Los Angeles Center
Fri 11:49:39 AM 36.2381 -116.3228 314° West 368 423 32,000 1,248 Climbing Los Angeles Center
Fri 11:50:42 AM 36.3083 -116.4122 314° West 366 421 32,000  Level Los Angeles Center
Fri 11:51:44 AM 36.3794 -116.5036 314° West 368 423 32,000  Level Los Angeles Center
Fri 11:52:46 AM 36.4500 -116.5961 313° West 369 425 32,000  Level Los Angeles Center
Fri 11:53:48 AM 36.5342 -116.7067 313° West 369 425 32,000  Level Los Angeles Center
Fri 11:54:50 AM 36.6031 -116.7792 320° Northwest 366 421 32,000  Level Los Angeles Center
Fri 11:55:52 AM 36.7119 -116.8586 330° Northwest 375 432 32,000  Level Los Angeles Center
Fri 11:56:54 AM 36.8003 -116.9269 328° Northwest 374 430 32,000  Level Los Angeles Center
Fri 11:57:57 AM 36.8889 -116.9939 329° Northwest 372 428 32,000  Level Los Angeles Center
Fri 11:58:59 AM 36.9775 -117.0622 328° Northwest 372 428 32,000  Level Los Angeles Center
Fri 12:00:01 PM 37.0661 -117.1303 329° Northwest 374 430 32,000  Level Los Angeles Center
Fri 12:01:03 PM 37.1561 -117.1986 329° Northwest 376 433 32,000  Level Los Angeles Center
Fri 12:02:05 PM 37.2611 -117.2819 328° Northwest 371 427 32,000  Level Los Angeles Center
Fri 12:03:07 PM 37.3503 -117.3442 331° Northwest 366 421 32,000  Level Los Angeles Center
Fri 12:03:51 PM 37.4064 -117.3828 331° Northwest 371 427 32,000  Level Oakland Center
Fri 12:04:53 PM 37.4947 -117.4386 333° Northwest 362 417 32,000  Level Oakland Center
Fri 12:05:54 PM 37.6008 -117.5075 333° Northwest 357 411 32,000  Level Oakland Center
Fri 12:06:56 PM 37.6903 -117.5647 333° Northwest 357 411 32,000  Level Oakland Center
Fri 12:07:57 PM 37.7781 -117.6222 333° Northwest 353 406 32,000  Level Oakland Center
Fri 12:08:59 PM 37.8400 -117.7172 310° West 371 427 32,000  Level Oakland Center
Fri 12:10:01 PM 37.8431 -117.8567 272° West 394 453 32,000  Level Oakland Center
Fri 12:11:02 PM 37.8461 -117.9900 272° West 383 441 32,000  Level Oakland Center
Fri 12:12:04 PM 37.8481 -118.1258 271° West 384 442 32,000  Level Oakland Center
Fri 12:13:05 PM 37.8494 -118.2628 271° West 388 447 32,000  Level Oakland Center
Fri 12:14:07 PM 37.8519 -118.3981 271° West 387 445 32,000  Level Oakland Center
Fri 12:15:08 PM 37.8536 -118.5350 271° West 387 445 32,000  Level Oakland Center
Fri 12:16:10 PM 37.8578 -118.6994 272° West 389 448 32,000  Level Oakland Center
Fri 12:17:12 PM 37.8575 -118.8350 270° West 388 447 32,000  Level Oakland Center
Fri 12:18:13 PM 37.8586 -118.9725 271° West 392 451 32,000  Level Oakland Center
Fri 12:19:15 PM 37.8606 -119.1092 271° West 391 450 32,000  Level Oakland Center
Fri 12:20:16 PM 37.8603 -119.2475 270° West 392 451 32,000  Level Oakland Center
Fri 12:21:18 PM 37.8617 -119.3822 271° West 386 444 32,000  Level Oakland Center
Fri 12:22:19 PM 37.8628 -119.5169 271° West 385 443 32,000  Level Oakland Center
Fri 12:23:21 PM 37.8636 -119.6536 270° West 386 444 32,000  Level Oakland Center
Fri 12:24:22 PM 37.8636 -119.8172 270° West 387 445 32,000  Level Oakland Center
Fri 12:25:24 PM 37.8639 -119.9531 270° West 387 445 32,000  Level Oakland Center
Fri 12:26:25 PM 37.8631 -120.0900 270° West 387 445 32,000 -537 Level Oakland Center
Fri 12:27:27 PM 37.8653 -120.2250 271° West 385 443 30,900 -1,512 Descending Oakland Center
Fri 12:28:28 PM 37.8656 -120.3553 270° West 376 433 28,900 -1,951 Descending Oakland Center
Fri 12:29:30 PM 37.8647 -120.4808 270° West 362 417 26,900 -2,000 Descending Oakland Center
Fri 12:30:31 PM 37.8656 -120.6106 271° West 364 419 24,800 -2,049 Descending Oakland Center
Fri 12:31:33 PM 37.8608 -120.7422 267° West 371 427 22,700 -2,683 Descending Oakland Center
Fri 12:32:34 PM 37.8525 -120.8717 265° West 368 423 19,300 -3,095 Descending Oakland Center
Fri 12:33:08 PM 37.8500 -120.9667 268° West 365 420 17,800 -2,426 Descending Northern Cal TRACON
Fri 12:34:08 PM 37.8333 -121.0833 260° West 359 413 15,500 -2,269 Descending Northern Cal TRACON
Fri 12:35:07 PM 37.8167 -121.2000 260° West 390 449 13,300 -2,168 Descending Northern Cal TRACON
Fri 12:36:07 PM 37.7333 -121.2833 218° Southwest 348 400 11,200 -1,684 Descending Northern Cal TRACON
Fri 12:37:01 PM 37.6500 -121.2667 171° South 334 384 10,100 -1,105 Descending Northern Cal TRACON
Fri 12:38:01 PM 37.5667 -121.2667 180° South 297 342 9,100 -1,041 Descending Northern Cal TRACON
Fri 12:39:02 PM 37.4833 -121.2500 171° South 284 327 8,000 -545 Descending Northern Cal TRACON
Fri 12:40:02 PM 37.4500 -121.3167 238° Southwest 250 288 8,000  Level Northern Cal TRACON
Fri 12:41:02 PM 37.4333 -121.4000 256° West 240 276 8,000 -252 Level Northern Cal TRACON
Fri 12:42:01 PM 37.4333 -121.4667 270° West 250 288 7,500 -359 Descending Northern Cal TRACON
Fri 12:43:49 PM 37.4944 -121.5928 301° West 232 267 7,000 -497 Descending Oakland Center
Fri 12:44:50 PM 37.5108 -121.6706 285° West 234 269 6,100 -472 Descending Oakland Center
Fri 12:45:56 PM 37.5167 -121.7667 274° West 227 261 6,000 -429 Descending Northern Cal TRACON
Fri 12:46:56 PM 37.5333 -121.8333 288° West 228 262 5,200 -737 Descending Northern Cal TRACON
Fri 12:47:50 PM 37.5333 -121.9000 270° West 213 245 4,600 -579 Descending Northern Cal TRACON
Fri 12:48:50 PM 37.5500 -121.9833 284° West 214 246 4,100 -500 Descending Northern Cal TRACON
Fri 12:49:50 PM 37.5833 -122.0333 310° West 202 232 3,600 -750 Descending Northern Cal TRACON
Fri 12:50:50 PM 37.6167 -122.0833 310° West 191 220 2,600 -833 Descending Northern Cal TRACON
Fri 12:52:50 PM 37.6667 -122.1667 307° West 132 152 1,100 -767 Descending Northern Cal TRACON
Fri 12:53:50 PM 37.7000 -122.2000 322° Northwest 133 153 300 -800 Descending Northern Cal TRACON

Login

Don't have an account? Register now (free) for customized features, flight alerts, and more!